sensor_id;sensor_type;location;lat;lon;timestamp;P1;durP1;ratioP1;P2;durP2;ratioP2
67712;SDS011;67640;55.784;49.138;2023-06-10T00:01:15;15.48;;;8.38;;
67712;SDS011;67640;55.784;49.138;2023-06-10T00:06:30;17.73;;;8.83;;
67712;SDS011;67640;55.784;49.138;2023-06-10T00:11:49;19.20;;;10.05;;
67712;SDS011;67640;55.784;49.138;2023-06-10T00:17:08;23.22;;;10.32;;
67712;SDS011;67640;55.784;49.138;2023-06-10T00:27:48;19.63;;;9.87;;
67712;SDS011;67640;55.784;49.138;2023-06-10T00:32:53;22.32;;;10.15;;
67712;SDS011;67640;55.784;49.138;2023-06-10T00:37:58;18.60;;;9.80;;
67712;SDS011;67640;55.784;49.138;2023-06-10T00:43:17;18.12;;;10.25;;
67712;SDS011;67640;55.784;49.138;2023-06-10T00:48:36;20.23;;;10.38;;
67712;SDS011;67640;55.784;49.138;2023-06-10T00:53:55;18.47;;;9.47;;
67712;SDS011;67640;55.784;49.138;2023-06-10T00:59:02;20.37;;;9.78;;
67712;SDS011;67640;55.784;49.138;2023-06-10T01:04:07;19.97;;;9.43;;
67712;SDS011;67640;55.784;49.138;2023-06-10T01:14:51;18.67;;;10.00;;
67712;SDS011;67640;55.784;49.138;2023-06-10T01:19:56;18.85;;;9.68;;
67712;SDS011;67640;55.784;49.138;2023-06-10T01:25:15;18.15;;;8.60;;
67712;SDS011;67640;55.784;49.138;2023-06-10T01:41:20;13.33;;;6.83;;
67712;SDS011;67640;55.784;49.138;2023-06-10T01:46:27;11.45;;;5.53;;
67712;SDS011;67640;55.784;49.138;2023-06-10T01:51:46;8.83;;;4.30;;
67712;SDS011;67640;55.784;49.138;2023-06-10T01:57:06;8.13;;;3.92;;
67712;SDS011;67640;55.784;49.138;2023-06-10T02:02:25;9.48;;;4.17;;
67712;SDS011;67640;55.784;49.138;2023-06-10T02:07:30;7.90;;;4.07;;
67712;SDS011;67640;55.784;49.138;2023-06-10T02:12:35;7.03;;;3.85;;
67712;SDS011;67640;55.784;49.138;2023-06-10T02:17:40;7.93;;;3.67;;
67712;SDS011;67640;55.784;49.138;2023-06-10T02:28:21;10.75;;;4.80;;
67712;SDS011;67640;55.784;49.138;2023-06-10T02:33:26;7.97;;;4.22;;
67712;SDS011;67640;55.784;49.138;2023-06-10T02:38:31;10.45;;;4.85;;
67712;SDS011;67640;55.784;49.138;2023-06-10T02:43:36;10.03;;;5.17;;
67712;SDS011;67640;55.784;49.138;2023-06-10T02:48:55;10.43;;;5.23;;
67712;SDS011;67640;55.784;49.138;2023-06-10T02:54:14;8.50;;;5.00;;
67712;SDS011;67640;55.784;49.138;2023-06-10T02:59:20;9.53;;;5.60;;
67712;SDS011;67640;55.784;49.138;2023-06-10T03:04:25;10.75;;;5.50;;
67712;SDS011;67640;55.784;49.138;2023-06-10T03:09:44;11.33;;;5.70;;
67712;SDS011;67640;55.784;49.138;2023-06-10T03:14:49;12.73;;;5.90;;
67712;SDS011;67640;55.784;49.138;2023-06-10T03:20:08;9.48;;;5.55;;
67712;SDS011;67640;55.784;49.138;2023-06-10T03:25:14;9.03;;;5.03;;
67712;SDS011;67640;55.784;49.138;2023-06-10T03:30:29;11.95;;;4.75;;
67712;SDS011;67640;55.784;49.138;2023-06-10T03:35:48;9.15;;;5.47;;
67712;SDS011;67640;55.784;49.138;2023-06-10T03:41:07;9.97;;;5.13;;
67712;SDS011;67640;55.784;49.138;2023-06-10T03:46:26;9.43;;;4.85;;
67712;SDS011;67640;55.784;49.138;2023-06-10T03:51:31;8.20;;;4.37;;
67712;SDS011;67640;55.784;49.138;2023-06-10T03:56:36;9.20;;;4.10;;
67712;SDS011;67640;55.784;49.138;2023-06-10T04:01:55;9.05;;;4.72;;
67712;SDS011;67640;55.784;49.138;2023-06-10T04:07:14;6.77;;;3.67;;
67712;SDS011;67640;55.784;49.138;2023-06-10T04:12:33;7.55;;;3.90;;
67712;SDS011;67640;55.784;49.138;2023-06-10T04:17:38;10.45;;;3.40;;
67712;SDS011;67640;55.784;49.138;2023-06-10T04:22:44;6.45;;;3.40;;
67712;SDS011;67640;55.784;49.138;2023-06-10T04:28:03;9.68;;;3.67;;
67712;SDS011;67640;55.784;49.138;2023-06-10T04:33:22;7.57;;;3.77;;
67712;SDS011;67640;55.784;49.138;2023-06-10T04:38:41;7.20;;;3.47;;
67712;SDS011;67640;55.784;49.138;2023-06-10T04:43:47;8.08;;;3.60;;
67712;SDS011;67640;55.784;49.138;2023-06-10T04:48:52;7.60;;;3.50;;
67712;SDS011;67640;55.784;49.138;2023-06-10T04:54:11;6.62;;;3.35;;
67712;SDS011;67640;55.784;49.138;2023-06-10T04:59:30;5.93;;;3.30;;
67712;SDS011;67640;55.784;49.138;2023-06-10T05:04:49;9.25;;;3.30;;
67712;SDS011;67640;55.784;49.138;2023-06-10T05:09:55;6.22;;;3.17;;
67712;SDS011;67640;55.784;49.138;2023-06-10T05:14:59;6.80;;;2.90;;
67712;SDS011;67640;55.784;49.138;2023-06-10T05:20:20;9.15;;;3.25;;
67712;SDS011;67640;55.784;49.138;2023-06-10T05:25:39;7.40;;;3.30;;
67712;SDS011;67640;55.784;49.138;2023-06-10T05:30:58;9.20;;;3.52;;
67712;SDS011;67640;55.784;49.138;2023-06-10T05:36:06;6.62;;;3.12;;
67712;SDS011;67640;55.784;49.138;2023-06-10T05:41:11;47.65;;;6.40;;
67712;SDS011;67640;55.784;49.138;2023-06-10T05:46:50;24.23;;;4.20;;
67712;SDS011;67640;55.784;49.138;2023-06-10T05:52:09;8.40;;;3.53;;
67712;SDS011;67640;55.784;49.138;2023-06-10T05:57:28;13.18;;;3.70;;
67712;SDS011;67640;55.784;49.138;2023-06-10T06:02:34;14.15;;;3.42;;
67712;SDS011;67640;55.784;49.138;2023-06-10T06:07:39;8.80;;;3.20;;
67712;SDS011;67640;55.784;49.138;2023-06-10T06:12:44;9.80;;;3.50;;
67712;SDS011;67640;55.784;49.138;2023-06-10T06:18:03;37.50;;;5.83;;
67712;SDS011;67640;55.784;49.138;2023-06-10T06:23:08;14.13;;;3.45;;
67712;SDS011;67640;55.784;49.138;2023-06-10T06:28:27;14.10;;;4.00;;
67712;SDS011;67640;55.784;49.138;2023-06-10T06:33:47;9.35;;;3.60;;
67712;SDS011;67640;55.784;49.138;2023-06-10T06:38:52;7.60;;;2.80;;
67712;SDS011;67640;55.784;49.138;2023-06-10T06:44:11;6.30;;;3.30;;
67712;SDS011;67640;55.784;49.138;2023-06-10T06:49:16;10.72;;;3.05;;
67712;SDS011;67640;55.784;49.138;2023-06-10T06:54:21;7.65;;;3.15;;
67712;SDS011;67640;55.784;49.138;2023-06-10T06:59:40;6.47;;;3.00;;
67712;SDS011;67640;55.784;49.138;2023-06-10T07:04:46;15.40;;;2.77;;
67712;SDS011;67640;55.784;49.138;2023-06-10T07:10:06;8.15;;;3.25;;
67712;SDS011;67640;55.784;49.138;2023-06-10T07:15:11;9.48;;;2.72;;
67712;SDS011;67640;55.784;49.138;2023-06-10T07:20:16;8.15;;;2.20;;
67712;SDS011;67640;55.784;49.138;2023-06-10T07:25:35;11.93;;;3.33;;
67712;SDS011;67640;55.784;49.138;2023-06-10T07:30:54;55.87;;;6.33;;
67712;SDS011;67640;55.784;49.138;2023-06-10T07:36:13;14.63;;;4.33;;
67712;SDS011;67640;55.784;49.138;2023-06-10T07:41:20;85.87;;;9.23;;
67712;SDS011;67640;55.784;49.138;2023-06-10T07:46:26;10.90;;;2.80;;
67712;SDS011;67640;55.784;49.138;2023-06-10T07:51:32;11.53;;;3.27;;
67712;SDS011;67640;55.784;49.138;2023-06-10T07:56:51;13.40;;;4.80;;
67712;SDS011;67640;55.784;49.138;2023-06-10T08:01:56;23.47;;;3.63;;
67712;SDS011;67640;55.784;49.138;2023-06-10T08:07:01;8.48;;;2.62;;
67712;SDS011;67640;55.784;49.138;2023-06-10T08:12:21;12.80;;;3.30;;
67712;SDS011;67640;55.784;49.138;2023-06-10T08:17:40;70.83;;;7.80;;
67712;SDS011;67640;55.784;49.138;2023-06-10T08:22:59;36.55;;;5.25;;
67712;SDS011;67640;55.784;49.138;2023-06-10T08:28:04;15.73;;;2.90;;
67712;SDS011;67640;55.784;49.138;2023-06-10T08:33:09;8.03;;;2.52;;
67712;SDS011;67640;55.784;49.138;2023-06-10T08:38:14;162.73;;;15.53;;
67712;SDS011;67640;55.784;49.138;2023-06-10T08:49:07;14.98;;;3.80;;
67712;SDS011;67640;55.784;49.138;2023-06-10T08:54:27;6.80;;;2.40;;
67712;SDS011;67640;55.784;49.138;2023-06-10T08:59:33;32.25;;;5.42;;
67712;SDS011;67640;55.784;49.138;2023-06-10T09:04:53;28.97;;;3.90;;
67712;SDS011;67640;55.784;49.138;2023-06-10T09:09:58;26.35;;;3.02;;
67712;SDS011;67640;55.784;49.138;2023-06-10T09:15:17;6.37;;;2.12;;
67712;SDS011;67640;55.784;49.138;2023-06-10T09:20:38;114.33;;;11.23;;
67712;SDS011;67640;55.784;49.138;2023-06-10T09:25:44;88.03;;;7.33;;
67712;SDS011;67640;55.784;49.138;2023-06-10T09:30:50;16.63;;;2.73;;
67712;SDS011;67640;55.784;49.138;2023-06-10T09:41:39;40.17;;;4.03;;
67712;SDS011;67640;55.784;49.138;2023-06-10T09:46:45;9.00;;;2.98;;
67712;SDS011;67640;55.784;49.138;2023-06-10T09:52:05;4.90;;;1.50;;
67712;SDS011;67640;55.784;49.138;2023-06-10T09:57:24;8.13;;;1.87;;
67712;SDS011;67640;55.784;49.138;2023-06-10T10:02:44;9.17;;;2.53;;
67712;SDS011;67640;55.784;49.138;2023-06-10T10:07:50;5.33;;;1.40;;
67712;SDS011;67640;55.784;49.138;2023-06-10T10:12:55;5.22;;;1.55;;
67712;SDS011;67640;55.784;49.138;2023-06-10T10:23:32;62.67;;;6.50;;
67712;SDS011;67640;55.784;49.138;2023-06-10T10:45:18;10.53;;;2.10;;
67712;SDS011;67640;55.784;49.138;2023-06-10T10:50:37;48.57;;;4.07;;
67712;SDS011;67640;55.784;49.138;2023-06-10T10:55:44;43.38;;;3.20;;
67712;SDS011;67640;55.784;49.138;2023-06-10T11:34:55;4.13;;;1.30;;
67712;SDS011;67640;55.784;49.138;2023-06-10T11:40:00;4.72;;;0.72;;
67712;SDS011;67640;55.784;49.138;2023-06-10T11:45:08;9.55;;;1.00;;
67712;SDS011;67640;55.784;49.138;2023-06-10T11:55:53;4.80;;;1.15;;
67712;SDS011;67640;55.784;49.138;2023-06-10T12:01:12;3.37;;;0.90;;
67712;SDS011;67640;55.784;49.138;2023-06-10T12:06:38;8.50;;;1.37;;
67712;SDS011;67640;55.784;49.138;2023-06-10T12:12:02;2.85;;;0.70;;
67712;SDS011;67640;55.784;49.138;2023-06-10T12:28:50;7.55;;;0.70;;
67712;SDS011;67640;55.784;49.138;2023-06-10T12:39:41;1.90;;;0.60;;
67712;SDS011;67640;55.784;49.138;2023-06-10T12:44:47;4.05;;;0.60;;
67712;SDS011;67640;55.784;49.138;2023-06-10T12:50:08;6.30;;;0.75;;
67712;SDS011;67640;55.784;49.138;2023-06-10T12:55:14;8.20;;;0.80;;
67712;SDS011;67640;55.784;49.138;2023-06-10T13:00:20;2.10;;;0.77;;
67712;SDS011;67640;55.784;49.138;2023-06-10T13:05:26;6.92;;;0.75;;
67712;SDS011;67640;55.784;49.138;2023-06-10T13:10:32;4.80;;;0.78;;
67712;SDS011;67640;55.784;49.138;2023-06-10T13:15:51;3.10;;;0.60;;
67712;SDS011;67640;55.784;49.138;2023-06-10T13:20:56;3.20;;;0.80;;
67712;SDS011;67640;55.784;49.138;2023-06-10T13:26:15;5.85;;;1.02;;
67712;SDS011;67640;55.784;49.138;2023-06-10T13:31:21;7.77;;;2.00;;
67712;SDS011;67640;55.784;49.138;2023-06-10T13:36:40;7.10;;;1.60;;
67712;SDS011;67640;55.784;49.138;2023-06-10T13:41:59;9.70;;;1.90;;
67712;SDS011;67640;55.784;49.138;2023-06-10T13:47:05;6.90;;;1.00;;
67712;SDS011;67640;55.784;49.138;2023-06-10T13:52:10;4.85;;;1.12;;
67712;SDS011;67640;55.784;49.138;2023-06-10T13:57:16;3.40;;;0.80;;
67712;SDS011;67640;55.784;49.138;2023-06-10T14:02:31;4.75;;;1.12;;
67712;SDS011;67640;55.784;49.138;2023-06-10T14:07:50;3.73;;;0.80;;
67712;SDS011;67640;55.784;49.138;2023-06-10T14:13:09;2.62;;;0.90;;
67712;SDS011;67640;55.784;49.138;2023-06-10T14:18:28;9.30;;;1.12;;
67712;SDS011;67640;55.784;49.138;2023-06-10T14:23:33;2.23;;;0.70;;
67712;SDS011;67640;55.784;49.138;2023-06-10T14:28:38;5.55;;;1.17;;
67712;SDS011;67640;55.784;49.138;2023-06-10T14:33:57;4.03;;;0.77;;
67712;SDS011;67640;55.784;49.138;2023-06-10T14:39:03;12.23;;;1.50;;
67712;SDS011;67640;55.784;49.138;2023-06-10T14:44:11;17.90;;;1.95;;
67712;SDS011;67640;55.784;49.138;2023-06-10T14:49:26;11.00;;;2.00;;
67712;SDS011;67640;55.784;49.138;2023-06-10T14:54:40;14.05;;;2.00;;
67712;SDS011;67640;55.784;49.138;2023-06-10T15:00:00;18.53;;;1.50;;
67712;SDS011;67640;55.784;49.138;2023-06-10T15:05:19;4.60;;;0.88;;
67712;SDS011;67640;55.784;49.138;2023-06-10T15:10:24;10.32;;;1.47;;
67712;SDS011;67640;55.784;49.138;2023-06-10T15:15:29;8.23;;;0.97;;
67712;SDS011;67640;55.784;49.138;2023-06-10T15:20:34;45.35;;;3.70;;
67712;SDS011;67640;55.784;49.138;2023-06-10T15:25:53;16.33;;;1.50;;
67712;SDS011;67640;55.784;49.138;2023-06-10T15:31:08;14.98;;;1.92;;
67712;SDS011;67640;55.784;49.138;2023-06-10T15:36:27;22.82;;;1.90;;
67712;SDS011;67640;55.784;49.138;2023-06-10T15:41:33;10.70;;;1.30;;
67712;SDS011;67640;55.784;49.138;2023-06-10T15:46:53;15.20;;;1.57;;
67712;SDS011;67640;55.784;49.138;2023-06-10T15:51:58;5.77;;;0.80;;
67712;SDS011;67640;55.784;49.138;2023-06-10T15:57:04;5.35;;;0.70;;
67712;SDS011;67640;55.784;49.138;2023-06-10T16:02:13;2.30;;;0.50;;
67712;SDS011;67640;55.784;49.138;2023-06-10T16:07:20;2.40;;;0.73;;
67712;SDS011;67640;55.784;49.138;2023-06-10T16:12:43;2.80;;;0.60;;
67712;SDS011;67640;55.784;49.138;2023-06-10T16:17:48;3.45;;;0.80;;
67712;SDS011;67640;55.784;49.138;2023-06-10T16:23:07;4.53;;;1.00;;
67712;SDS011;67640;55.784;49.138;2023-06-10T16:28:12;3.45;;;0.85;;
67712;SDS011;67640;55.784;49.138;2023-06-10T16:33:31;2.92;;;0.90;;
67712;SDS011;67640;55.784;49.138;2023-06-10T16:38:50;4.20;;;1.03;;
67712;SDS011;67640;55.784;49.138;2023-06-10T16:43:55;3.50;;;1.10;;
67712;SDS011;67640;55.784;49.138;2023-06-10T16:49:00;3.50;;;1.10;;
67712;SDS011;67640;55.784;49.138;2023-06-10T16:54:05;3.37;;;1.00;;
67712;SDS011;67640;55.784;49.138;2023-06-10T16:59:11;4.47;;;1.05;;
67712;SDS011;67640;55.784;49.138;2023-06-10T17:04:52;4.63;;;0.90;;
67712;SDS011;67640;55.784;49.138;2023-06-10T17:09:57;6.83;;;1.10;;
67712;SDS011;67640;55.784;49.138;2023-06-10T17:15:03;4.05;;;1.47;;
67712;SDS011;67640;55.784;49.138;2023-06-10T17:20:09;7.10;;;1.63;;
67712;SDS011;67640;55.784;49.138;2023-06-10T17:25:29;8.10;;;1.33;;
67712;SDS011;67640;55.784;49.138;2023-06-10T17:30:35;7.50;;;1.98;;
67712;SDS011;67640;55.784;49.138;2023-06-10T17:35:54;6.50;;;2.00;;
67712;SDS011;67640;55.784;49.138;2023-06-10T17:41:13;5.78;;;1.72;;
67712;SDS011;67640;55.784;49.138;2023-06-10T17:46:32;6.28;;;1.45;;
67712;SDS011;67640;55.784;49.138;2023-06-10T17:51:51;7.30;;;1.33;;
67712;SDS011;67640;55.784;49.138;2023-06-10T17:56:57;4.45;;;1.35;;
67712;SDS011;67640;55.784;49.138;2023-06-10T18:02:03;3.97;;;1.30;;
67712;SDS011;67640;55.784;49.138;2023-06-10T18:07:13;3.85;;;1.30;;
67712;SDS011;67640;55.784;49.138;2023-06-10T18:12:32;4.75;;;1.02;;
67712;SDS011;67640;55.784;49.138;2023-06-10T18:17:51;4.57;;;1.40;;
67712;SDS011;67640;55.784;49.138;2023-06-10T18:23:01;4.72;;;1.37;;
67712;SDS011;67640;55.784;49.138;2023-06-10T18:28:07;6.57;;;1.37;;
67712;SDS011;67640;55.784;49.138;2023-06-10T18:33:26;5.57;;;1.07;;
67712;SDS011;67640;55.784;49.138;2023-06-10T18:38:32;4.92;;;1.35;;
67712;SDS011;67640;55.784;49.138;2023-06-10T18:43:37;9.60;;;1.37;;
67712;SDS011;67640;55.784;49.138;2023-06-10T18:48:57;11.80;;;3.12;;
67712;SDS011;67640;55.784;49.138;2023-06-10T18:54:16;10.78;;;3.98;;
67712;SDS011;67640;55.784;49.138;2023-06-10T18:59:35;8.30;;;3.63;;
67712;SDS011;67640;55.784;49.138;2023-06-10T19:04:54;9.23;;;3.60;;
67712;SDS011;67640;55.784;49.138;2023-06-10T19:10:00;8.70;;;3.73;;
67712;SDS011;67640;55.784;49.138;2023-06-10T19:15:07;10.70;;;3.80;;
67712;SDS011;67640;55.784;49.138;2023-06-10T19:20:46;10.63;;;4.37;;
67712;SDS011;67640;55.784;49.138;2023-06-10T19:25:50;12.43;;;3.50;;
67712;SDS011;67640;55.784;49.138;2023-06-10T19:30:56;8.50;;;3.60;;
67712;SDS011;67640;55.784;49.138;2023-06-10T19:36:00;12.00;;;3.25;;
67712;SDS011;67640;55.784;49.138;2023-06-10T19:41:19;13.80;;;4.03;;
67712;SDS011;67640;55.784;49.138;2023-06-10T19:57:44;9.03;;;2.50;;
67712;SDS011;67640;55.784;49.138;2023-06-10T20:02:50;7.83;;;2.72;;
67712;SDS011;67640;55.784;49.138;2023-06-10T20:07:55;8.28;;;2.60;;
67712;SDS011;67640;55.784;49.138;2023-06-10T20:13:01;7.30;;;2.50;;
67712;SDS011;67640;55.784;49.138;2023-06-10T20:18:20;6.30;;;2.77;;
67712;SDS011;67640;55.784;49.138;2023-06-10T20:23:39;5.33;;;2.53;;
67712;SDS011;67640;55.784;49.138;2023-06-10T20:28:44;8.55;;;2.60;;
67712;SDS011;67640;55.784;49.138;2023-06-10T20:34:03;7.53;;;2.80;;
67712;SDS011;67640;55.784;49.138;2023-06-10T20:39:10;7.17;;;2.40;;
67712;SDS011;67640;55.784;49.138;2023-06-10T20:44:15;8.50;;;2.50;;
67712;SDS011;67640;55.784;49.138;2023-06-10T20:49:36;7.77;;;2.70;;
67712;SDS011;67640;55.784;49.138;2023-06-10T20:54:42;6.80;;;2.50;;
67712;SDS011;67640;55.784;49.138;2023-06-10T21:00:21;7.42;;;2.58;;
67712;SDS011;67640;55.784;49.138;2023-06-10T21:05:27;5.77;;;2.43;;
67712;SDS011;67640;55.784;49.138;2023-06-10T21:10:32;14.60;;;2.87;;
67712;SDS011;67640;55.784;49.138;2023-06-10T21:15:51;8.77;;;2.40;;
67712;SDS011;67640;55.784;49.138;2023-06-10T21:20:56;8.10;;;2.55;;
67712;SDS011;67640;55.784;49.138;2023-06-10T21:26:16;5.97;;;2.45;;
67712;SDS011;67640;55.784;49.138;2023-06-10T21:31:23;6.40;;;2.30;;
67712;SDS011;67640;55.784;49.138;2023-06-10T21:36:28;8.50;;;2.85;;
67712;SDS011;67640;55.784;49.138;2023-06-10T21:41:47;5.63;;;2.30;;
67712;SDS011;67640;55.784;49.138;2023-06-10T21:47:06;6.08;;;2.08;;
67712;SDS011;67640;55.784;49.138;2023-06-10T21:52:26;6.05;;;2.25;;
67712;SDS011;67640;55.784;49.138;2023-06-10T21:57:31;7.37;;;2.30;;
67712;SDS011;67640;55.784;49.138;2023-06-10T22:07:59;7.00;;;2.20;;
67712;SDS011;67640;55.784;49.138;2023-06-10T22:13:04;5.03;;;2.03;;
67712;SDS011;67640;55.784;49.138;2023-06-10T22:18:10;6.22;;;2.02;;
67712;SDS011;67640;55.784;49.138;2023-06-10T22:23:29;5.17;;;1.60;;
67712;SDS011;67640;55.784;49.138;2023-06-10T22:28:48;9.87;;;1.77;;
67712;SDS011;67640;55.784;49.138;2023-06-10T22:34:07;6.47;;;1.80;;
67712;SDS011;67640;55.784;49.138;2023-06-10T22:39:13;6.20;;;1.63;;
67712;SDS011;67640;55.784;49.138;2023-06-10T22:44:19;5.65;;;1.50;;
67712;SDS011;67640;55.784;49.138;2023-06-10T22:49:24;4.95;;;1.60;;
67712;SDS011;67640;55.784;49.138;2023-06-10T22:54:39;7.17;;;1.80;;
67712;SDS011;67640;55.784;49.138;2023-06-10T22:59:58;6.85;;;1.55;;
67712;SDS011;67640;55.784;49.138;2023-06-10T23:05:03;3.92;;;1.50;;
67712;SDS011;67640;55.784;49.138;2023-06-10T23:10:09;4.87;;;1.67;;
67712;SDS011;67640;55.784;49.138;2023-06-10T23:15:28;6.55;;;1.57;;
67712;SDS011;67640;55.784;49.138;2023-06-10T23:20:47;4.17;;;1.30;;
67712;SDS011;67640;55.784;49.138;2023-06-10T23:26:06;4.45;;;1.50;;
67712;SDS011;67640;55.784;49.138;2023-06-10T23:31:26;5.90;;;1.40;;
67712;SDS011;67640;55.784;49.138;2023-06-10T23:36:31;5.90;;;1.45;;
67712;SDS011;67640;55.784;49.138;2023-06-10T23:41:50;4.13;;;1.20;;
67712;SDS011;67640;55.784;49.138;2023-06-10T23:47:09;3.72;;;1.20;;
67712;SDS011;67640;55.784;49.138;2023-06-10T23:52:28;19.83;;;2.20;;
67712;SDS011;67640;55.784;49.138;2023-06-10T23:57:48;5.03;;;0.90;;
